MSR644 OEJN-HECA
Flight info
| Callsign | MSR644 |
|---|---|
| Flight time | 1h 44m |
| Altitude | 38000 |
| Route | MIGDA L677 CVO |
| Aircraft | A20N/M-SDE2E3FGHIRWXY/LB1 |
Departure
| Time | 2026-05-07 11:09 |
|---|---|
| Airport | King Abdulaziz International Airport (OEJN) |
Arrival
| Time | 2026-05-07 12:53 |
|---|---|
| Airport | Cairo International Airport (HECA) |
| Time | Latitude | Longitude | Altitude | Speed | Heading |
|---|---|---|---|---|---|
| 2026-05-07 10:48 | 21.66782 | 39.17210 | 48 ft | 0 kts | 254° |
| 2026-05-07 11:00 | 21.66786 | 39.17225 | 48 ft | 4 kts | 249° |
| 2026-05-07 11:00 | 21.66796 | 39.17251 | 45 ft | 4 kts | 239° |
| 2026-05-07 11:01 | 21.66810 | 39.17270 | 48 ft | 3 kts | 219° |
| 2026-05-07 11:01 | 21.66828 | 39.17281 | 49 ft | 3 kts | 190° |
| 2026-05-07 11:01 | 21.66848 | 39.17281 | 45 ft | 3 kts | 169° |
| 2026-05-07 11:01 | 21.66862 | 39.17278 | 46 ft | 2 kts | 162° |
| 2026-05-07 11:02 | 21.66873 | 39.17274 | 47 ft | 2 kts | 159° |
| 2026-05-07 11:02 | 21.66881 | 39.17271 | 47 ft | 0 kts | 158° |
| 2026-05-07 11:04 | 21.66879 | 39.17271 | 49 ft | 2 kts | 158° |
| 2026-05-07 11:04 | 21.66834 | 39.17290 | 50 ft | 12 kts | 160° |
| 2026-05-07 11:04 | 21.66726 | 39.17333 | 50 ft | 19 kts | 160° |
| 2026-05-07 11:04 | 21.66593 | 39.17384 | 51 ft | 17 kts | 160° |
| 2026-05-07 11:05 | 21.66504 | 39.17454 | 47 ft | 14 kts | 126° |
| 2026-05-07 11:05 | 21.66504 | 39.17560 | 53 ft | 15 kts | 73° |
| 2026-05-07 11:05 | 21.66541 | 39.17676 | 54 ft | 18 kts | 70° |
| 2026-05-07 11:05 | 21.66589 | 39.17811 | 51 ft | 20 kts | 70° |
| 2026-05-07 11:06 | 21.66624 | 39.17913 | 53 ft | 2 kts | 70° |
| 2026-05-07 11:07 | 21.66631 | 39.17934 | 52 ft | 7 kts | 70° |
| 2026-05-07 11:07 | 21.66668 | 39.18013 | 57 ft | 16 kts | 45° |
| 2026-05-07 11:08 | 21.66774 | 39.17994 | 52 ft | 19 kts | 340° |
| 2026-05-07 11:08 | 21.67077 | 39.17874 | 54 ft | 80 kts | 339° |
| 2026-05-07 11:08 | 21.67775 | 39.17606 | 50 ft | 131 kts | 340° |
| 2026-05-07 11:08 | 21.68745 | 39.17220 | 60 ft | 168 kts | 340° |
| 2026-05-07 11:09 | 21.69896 | 39.16865 | 476 ft | 176 kts | 341° |
| 2026-05-07 11:09 | 21.71104 | 39.16471 | 886 ft | 186 kts | 340° |
| 2026-05-07 11:09 | 21.72367 | 39.16015 | 1309 ft | 198 kts | 341° |
| 2026-05-07 11:09 | 21.73729 | 39.15713 | 1977 ft | 207 kts | 353° |
| 2026-05-07 11:10 | 21.75214 | 39.15994 | 2265 ft | 232 kts | 23° |
| 2026-05-07 11:10 | 21.76646 | 39.16898 | 2490 ft | 244 kts | 34° |
| 2026-05-07 11:10 | 21.78051 | 39.18051 | 2647 ft | 265 kts | 38° |
| 2026-05-07 11:10 | 21.79507 | 39.19288 | 3262 ft | 275 kts | 38° |
| 2026-05-07 11:11 | 21.81041 | 39.20551 | 4049 ft | 281 kts | 38° |
| 2026-05-07 11:11 | 21.82631 | 39.21818 | 4875 ft | 288 kts | 37° |
| 2026-05-07 11:11 | 21.84278 | 39.23109 | 5231 ft | 295 kts | 36° |
| 2026-05-07 11:11 | 21.86075 | 39.24099 | 5351 ft | 288 kts | 13° |
| 2026-05-07 11:12 | 21.88037 | 39.24163 | 5475 ft | 285 kts | 346° |
| 2026-05-07 11:12 | 21.89830 | 39.23300 | 5605 ft | 283 kts | 324° |
| 2026-05-07 11:12 | 21.91447 | 39.22091 | 5719 ft | 282 kts | 323° |
| 2026-05-07 11:12 | 21.93062 | 39.20895 | 5815 ft | 281 kts | 324° |
| 2026-05-07 11:13 | 21.94663 | 39.19740 | 5938 ft | 281 kts | 325° |
| 2026-05-07 11:13 | 21.96297 | 39.18589 | 6063 ft | 282 kts | 325° |
| 2026-05-07 11:13 | 21.97952 | 39.17442 | 6618 ft | 283 kts | 325° |
| 2026-05-07 11:13 | 21.99611 | 39.16299 | 7535 ft | 283 kts | 325° |
| 2026-05-07 11:14 | 22.01280 | 39.15149 | 8433 ft | 285 kts | 325° |
| 2026-05-07 11:14 | 22.02963 | 39.13988 | 9338 ft | 289 kts | 324° |
| 2026-05-07 11:14 | 22.04674 | 39.12807 | 10126 ft | 295 kts | 324° |
| 2026-05-07 11:14 | 22.06458 | 39.11573 | 10568 ft | 316 kts | 324° |
| 2026-05-07 11:15 | 22.08354 | 39.10256 | 10807 ft | 340 kts | 324° |
| 2026-05-07 11:15 | 22.10386 | 39.08850 | 11311 ft | 352 kts | 324° |
| 2026-05-07 11:15 | 22.12467 | 39.07414 | 12054 ft | 357 kts | 324° |
| 2026-05-07 11:15 | 22.14577 | 39.05959 | 12827 ft | 362 kts | 324° |
| 2026-05-07 11:16 | 22.16715 | 39.04482 | 13592 ft | 368 kts | 323° |
| 2026-05-07 11:16 | 22.18881 | 39.02984 | 14314 ft | 372 kts | 323° |
| 2026-05-07 11:16 | 22.21070 | 39.01467 | 15033 ft | 375 kts | 323° |
| 2026-05-07 11:16 | 22.23277 | 38.99937 | 15740 ft | 379 kts | 323° |
| 2026-05-07 11:17 | 22.25454 | 38.98427 | 16418 ft | 383 kts | 323° |
| 2026-05-07 11:17 | 22.27728 | 38.96848 | 17121 ft | 386 kts | 323° |
| 2026-05-07 11:17 | 22.30003 | 38.95269 | 17794 ft | 390 kts | 323° |
| 2026-05-07 11:17 | 22.32295 | 38.93676 | 18427 ft | 394 kts | 323° |
| 2026-05-07 11:18 | 22.34610 | 38.92068 | 19076 ft | 396 kts | 322° |
| 2026-05-07 11:18 | 22.36926 | 38.90459 | 19706 ft | 397 kts | 322° |
| 2026-05-07 11:18 | 22.39257 | 38.88838 | 20327 ft | 400 kts | 322° |
| 2026-05-07 11:18 | 22.41602 | 38.87206 | 20947 ft | 402 kts | 322° |
| 2026-05-07 11:19 | 22.43961 | 38.85564 | 21553 ft | 404 kts | 322° |
| 2026-05-07 11:19 | 22.46332 | 38.83912 | 22163 ft | 407 kts | 322° |
| 2026-05-07 11:19 | 22.48682 | 38.82275 | 22752 ft | 409 kts | 322° |
| 2026-05-07 11:19 | 22.51083 | 38.80602 | 23336 ft | 412 kts | 322° |
| 2026-05-07 11:20 | 22.53496 | 38.78919 | 23833 ft | 414 kts | 322° |
| 2026-05-07 11:20 | 22.55931 | 38.77221 | 24278 ft | 418 kts | 322° |
| 2026-05-07 11:20 | 22.58383 | 38.75509 | 24575 ft | 421 kts | 322° |
| 2026-05-07 11:20 | 22.60845 | 38.73791 | 24690 ft | 421 kts | 322° |
| 2026-05-07 11:21 | 22.63326 | 38.72094 | 24799 ft | 423 kts | 324° |
| 2026-05-07 11:21 | 22.65975 | 38.70661 | 24868 ft | 429 kts | 332° |
| 2026-05-07 11:21 | 22.68749 | 38.69443 | 24876 ft | 430 kts | 332° |
| 2026-05-07 11:21 | 22.71481 | 38.68239 | 24882 ft | 429 kts | 332° |
| 2026-05-07 11:22 | 22.74245 | 38.67014 | 24880 ft | 429 kts | 332° |
| 2026-05-07 11:22 | 22.77011 | 38.65786 | 24879 ft | 430 kts | 332° |
| 2026-05-07 11:22 | 22.79778 | 38.64557 | 24879 ft | 429 kts | 332° |
| 2026-05-07 11:22 | 22.82540 | 38.63330 | 24878 ft | 429 kts | 332° |
| 2026-05-07 11:23 | 22.85306 | 38.62101 | 24878 ft | 429 kts | 332° |
| 2026-05-07 11:23 | 22.88073 | 38.60871 | 24884 ft | 429 kts | 332° |
| 2026-05-07 11:23 | 22.90840 | 38.59640 | 24926 ft | 432 kts | 332° |
| 2026-05-07 11:23 | 22.93591 | 38.58416 | 25347 ft | 434 kts | 332° |
| 2026-05-07 11:24 | 22.96385 | 38.57173 | 25850 ft | 435 kts | 332° |
| 2026-05-07 11:24 | 22.99197 | 38.55921 | 26271 ft | 439 kts | 332° |
| 2026-05-07 11:24 | 23.02028 | 38.54659 | 26703 ft | 442 kts | 331° |
| 2026-05-07 11:24 | 23.04878 | 38.53389 | 27127 ft | 445 kts | 331° |
| 2026-05-07 11:25 | 23.07757 | 38.52105 | 27548 ft | 448 kts | 331° |
| 2026-05-07 11:25 | 23.10652 | 38.50814 | 27960 ft | 451 kts | 331° |
| 2026-05-07 11:25 | 23.13564 | 38.49514 | 28364 ft | 454 kts | 331° |
| 2026-05-07 11:25 | 23.16496 | 38.48205 | 28754 ft | 457 kts | 330° |
| 2026-05-07 11:26 | 23.19445 | 38.46889 | 29132 ft | 460 kts | 330° |
| 2026-05-07 11:26 | 23.22408 | 38.45565 | 29499 ft | 463 kts | 330° |
| 2026-05-07 11:26 | 23.25360 | 38.44245 | 29869 ft | 465 kts | 330° |
| 2026-05-07 11:26 | 23.28362 | 38.42903 | 30191 ft | 468 kts | 330° |
| 2026-05-07 11:27 | 23.31383 | 38.41551 | 30497 ft | 471 kts | 330° |
| 2026-05-07 11:27 | 23.34421 | 38.40191 | 30809 ft | 474 kts | 330° |
| 2026-05-07 11:27 | 23.37476 | 38.38824 | 31138 ft | 476 kts | 330° |
| 2026-05-07 11:27 | 23.40539 | 38.37452 | 31533 ft | 476 kts | 329° |
| 2026-05-07 11:28 | 23.43602 | 38.36080 | 31930 ft | 476 kts | 329° |
| 2026-05-07 11:28 | 23.46660 | 38.34710 | 32332 ft | 476 kts | 329° |
| 2026-05-07 11:28 | 23.49678 | 38.33355 | 32703 ft | 476 kts | 329° |
| 2026-05-07 11:28 | 23.52739 | 38.31981 | 33078 ft | 476 kts | 329° |
| 2026-05-07 11:29 | 23.55800 | 38.30605 | 33435 ft | 476 kts | 329° |
| 2026-05-07 11:29 | 23.58861 | 38.29229 | 33804 ft | 476 kts | 329° |
| 2026-05-07 11:29 | 23.61919 | 38.27853 | 34123 ft | 476 kts | 328° |
| 2026-05-07 11:29 | 23.64977 | 38.26477 | 34427 ft | 476 kts | 328° |
| 2026-05-07 11:30 | 23.68038 | 38.25099 | 34703 ft | 476 kts | 328° |
| 2026-05-07 11:30 | 23.71095 | 38.23721 | 34817 ft | 475 kts | 328° |
| 2026-05-07 11:30 | 23.77158 | 38.20988 | 34874 ft | 474 kts | 328° |
| 2026-05-07 11:31 | 23.83254 | 38.18234 | 34859 ft | 474 kts | 328° |
| 2026-05-07 11:31 | 23.89356 | 38.15474 | 35040 ft | 476 kts | 328° |
| 2026-05-07 11:32 | 23.95477 | 38.12708 | 35592 ft | 476 kts | 328° |
| 2026-05-07 11:32 | 23.98535 | 38.11324 | 35848 ft | 476 kts | 327° |
| 2026-05-07 11:32 | 24.01553 | 38.09957 | 36090 ft | 476 kts | 327° |
| 2026-05-07 11:33 | 24.04609 | 38.08572 | 36340 ft | 476 kts | 327° |
| 2026-05-07 11:33 | 24.07663 | 38.07187 | 36589 ft | 476 kts | 327° |
| 2026-05-07 11:33 | 24.10719 | 38.05801 | 36854 ft | 475 kts | 327° |
| 2026-05-07 11:33 | 24.13739 | 38.04369 | 37098 ft | 470 kts | 323° |
| 2026-05-07 11:34 | 24.16573 | 38.02652 | 37327 ft | 460 kts | 316° |
| 2026-05-07 11:34 | 24.19204 | 38.00699 | 37552 ft | 456 kts | 314° |
| 2026-05-07 11:34 | 24.21817 | 37.98729 | 37739 ft | 456 kts | 314° |
| 2026-05-07 11:35 | 24.27015 | 37.94838 | 37775 ft | 454 kts | 314° |
| 2026-05-07 11:35 | 24.32227 | 37.90930 | 37783 ft | 454 kts | 314° |
| 2026-05-07 11:36 | 24.37432 | 37.87018 | 37792 ft | 453 kts | 314° |
| 2026-05-07 11:36 | 24.42624 | 37.83112 | 37801 ft | 453 kts | 314° |
| 2026-05-07 11:37 | 24.47781 | 37.79229 | 37812 ft | 452 kts | 314° |
| 2026-05-07 11:37 | 24.52956 | 37.75329 | 37814 ft | 450 kts | 314° |
| 2026-05-07 11:38 | 24.58117 | 37.71434 | 37827 ft | 451 kts | 314° |
| 2026-05-07 11:38 | 24.63291 | 37.67526 | 37841 ft | 451 kts | 314° |
| 2026-05-07 11:39 | 24.68455 | 37.63623 | 37846 ft | 450 kts | 314° |
| 2026-05-07 11:39 | 24.73575 | 37.59749 | 37856 ft | 450 kts | 314° |
| 2026-05-07 11:40 | 24.78727 | 37.55845 | 37868 ft | 451 kts | 315° |
| 2026-05-07 11:40 | 24.83888 | 37.51933 | 37869 ft | 448 kts | 314° |
| 2026-05-07 11:41 | 24.89021 | 37.48037 | 37873 ft | 449 kts | 314° |
| 2026-05-07 11:41 | 24.94120 | 37.44162 | 37886 ft | 448 kts | 314° |
| 2026-05-07 11:42 | 24.99248 | 37.40262 | 37884 ft | 448 kts | 314° |
| 2026-05-07 11:42 | 25.04372 | 37.36361 | 37895 ft | 448 kts | 314° |
| 2026-05-07 11:43 | 25.09497 | 37.32456 | 37899 ft | 448 kts | 314° |
| 2026-05-07 11:43 | 25.14575 | 37.28582 | 37899 ft | 447 kts | 314° |
| 2026-05-07 11:44 | 25.19695 | 37.24672 | 37897 ft | 447 kts | 314° |
| 2026-05-07 11:44 | 25.24804 | 37.20766 | 37897 ft | 447 kts | 314° |
| 2026-05-07 11:45 | 25.29877 | 37.16884 | 37894 ft | 446 kts | 314° |
| 2026-05-07 11:45 | 25.34979 | 37.12975 | 37892 ft | 446 kts | 314° |
| 2026-05-07 11:46 | 25.40082 | 37.09060 | 37886 ft | 446 kts | 314° |
| 2026-05-07 11:46 | 25.45183 | 37.05142 | 37885 ft | 447 kts | 314° |
| 2026-05-07 11:47 | 25.50287 | 37.01218 | 37884 ft | 447 kts | 314° |
| 2026-05-07 11:47 | 25.55392 | 36.97289 | 37883 ft | 447 kts | 314° |
| 2026-05-07 11:48 | 25.60471 | 36.93376 | 37893 ft | 448 kts | 314° |
| 2026-05-07 11:48 | 25.65584 | 36.89434 | 37895 ft | 448 kts | 314° |
| 2026-05-07 11:49 | 25.70708 | 36.85478 | 37910 ft | 448 kts | 314° |
| 2026-05-07 11:49 | 25.75825 | 36.81523 | 37905 ft | 449 kts | 314° |
| 2026-05-07 11:50 | 25.80916 | 36.77585 | 37914 ft | 449 kts | 314° |
| 2026-05-07 11:50 | 25.86029 | 36.73627 | 37900 ft | 447 kts | 314° |
| 2026-05-07 11:51 | 25.91131 | 36.69670 | 37900 ft | 448 kts | 314° |
| 2026-05-07 11:51 | 25.96241 | 36.65702 | 37905 ft | 448 kts | 315° |
| 2026-05-07 11:52 | 26.01316 | 36.61758 | 37906 ft | 448 kts | 315° |
| 2026-05-07 11:52 | 26.06433 | 36.57777 | 37909 ft | 449 kts | 315° |
| 2026-05-07 11:53 | 26.11554 | 36.53789 | 37915 ft | 450 kts | 315° |
| 2026-05-07 11:53 | 26.16644 | 36.49756 | 37915 ft | 446 kts | 311° |
| 2026-05-07 11:54 | 26.21103 | 36.45170 | 37914 ft | 435 kts | 304° |
| 2026-05-07 11:54 | 26.25311 | 36.40311 | 37913 ft | 436 kts | 304° |
| 2026-05-07 11:55 | 26.29539 | 36.35452 | 37911 ft | 437 kts | 304° |
| 2026-05-07 11:55 | 26.33763 | 36.30584 | 37906 ft | 437 kts | 304° |
| 2026-05-07 11:56 | 26.37961 | 36.25737 | 37899 ft | 438 kts | 304° |
| 2026-05-07 11:56 | 26.42192 | 36.20845 | 37896 ft | 438 kts | 305° |
| 2026-05-07 11:57 | 26.46424 | 36.15948 | 37895 ft | 439 kts | 305° |
| 2026-05-07 11:57 | 26.50659 | 36.11041 | 37900 ft | 439 kts | 305° |
| 2026-05-07 11:58 | 26.54870 | 36.06156 | 37907 ft | 440 kts | 305° |
| 2026-05-07 11:58 | 26.59111 | 36.01232 | 37900 ft | 440 kts | 305° |
| 2026-05-07 11:59 | 26.63348 | 35.96306 | 37903 ft | 440 kts | 305° |
| 2026-05-07 11:59 | 26.67594 | 35.91364 | 37911 ft | 440 kts | 306° |
| 2026-05-07 12:00 | 26.71835 | 35.86422 | 37912 ft | 440 kts | 306° |
| 2026-05-07 12:00 | 26.76048 | 35.81509 | 37906 ft | 441 kts | 306° |
| 2026-05-07 12:01 | 26.80290 | 35.76555 | 37907 ft | 441 kts | 306° |
| 2026-05-07 12:01 | 26.84527 | 35.71601 | 37913 ft | 441 kts | 306° |
| 2026-05-07 12:02 | 26.88738 | 35.66673 | 37911 ft | 441 kts | 306° |
| 2026-05-07 12:02 | 26.92976 | 35.61708 | 37906 ft | 441 kts | 306° |
| 2026-05-07 12:03 | 26.97209 | 35.56742 | 37912 ft | 440 kts | 306° |
| 2026-05-07 12:03 | 27.01436 | 35.51777 | 37916 ft | 440 kts | 306° |
| 2026-05-07 12:04 | 27.05637 | 35.46837 | 37912 ft | 440 kts | 307° |
| 2026-05-07 12:04 | 27.09865 | 35.41861 | 37919 ft | 440 kts | 307° |
| 2026-05-07 12:05 | 27.14089 | 35.36882 | 37917 ft | 440 kts | 307° |
| 2026-05-07 12:05 | 27.18312 | 35.31900 | 37908 ft | 440 kts | 307° |
| 2026-05-07 12:06 | 27.22501 | 35.26951 | 37913 ft | 440 kts | 307° |
| 2026-05-07 12:06 | 27.26717 | 35.21964 | 37754 ft | 441 kts | 307° |
| 2026-05-07 12:06 | 27.28822 | 35.19473 | 37489 ft | 439 kts | 307° |
| 2026-05-07 12:07 | 27.30926 | 35.16982 | 37226 ft | 438 kts | 307° |
| 2026-05-07 12:07 | 27.33022 | 35.14498 | 36970 ft | 438 kts | 307° |
| 2026-05-07 12:07 | 27.35118 | 35.12010 | 36716 ft | 438 kts | 308° |
| 2026-05-07 12:07 | 27.37211 | 35.09526 | 36466 ft | 438 kts | 308° |
| 2026-05-07 12:08 | 27.39304 | 35.07040 | 36219 ft | 437 kts | 308° |
| 2026-05-07 12:08 | 27.41371 | 35.04584 | 35975 ft | 437 kts | 308° |
| 2026-05-07 12:08 | 27.43459 | 35.02101 | 35736 ft | 437 kts | 308° |
| 2026-05-07 12:08 | 27.45544 | 34.99620 | 35491 ft | 436 kts | 308° |
| 2026-05-07 12:09 | 27.47630 | 34.97137 | 35264 ft | 436 kts | 309° |
| 2026-05-07 12:09 | 27.49716 | 34.94653 | 35020 ft | 436 kts | 309° |
| 2026-05-07 12:09 | 27.51828 | 34.92200 | 34787 ft | 437 kts | 312° |
| 2026-05-07 12:09 | 27.54051 | 34.89859 | 34620 ft | 439 kts | 313° |
| 2026-05-07 12:10 | 27.56292 | 34.87499 | 34771 ft | 441 kts | 313° |
| 2026-05-07 12:10 | 27.58501 | 34.85169 | 35114 ft | 440 kts | 313° |
| 2026-05-07 12:10 | 27.60736 | 34.82810 | 35422 ft | 440 kts | 313° |
| 2026-05-07 12:10 | 27.62974 | 34.80445 | 35699 ft | 441 kts | 312° |
| 2026-05-07 12:11 | 27.65213 | 34.78075 | 35975 ft | 441 kts | 312° |
| 2026-05-07 12:11 | 27.67449 | 34.75708 | 36247 ft | 442 kts | 312° |
| 2026-05-07 12:11 | 27.69692 | 34.73333 | 36533 ft | 442 kts | 312° |
| 2026-05-07 12:11 | 27.71932 | 34.70960 | 36780 ft | 442 kts | 312° |
| 2026-05-07 12:12 | 27.74175 | 34.68583 | 37043 ft | 443 kts | 312° |
| 2026-05-07 12:12 | 27.76419 | 34.66203 | 37305 ft | 443 kts | 312° |
| 2026-05-07 12:12 | 27.78636 | 34.63851 | 37550 ft | 443 kts | 312° |
| 2026-05-07 12:12 | 27.80877 | 34.61471 | 37786 ft | 443 kts | 312° |
| 2026-05-07 12:13 | 27.83127 | 34.59080 | 37920 ft | 443 kts | 312° |
| 2026-05-07 12:13 | 27.87607 | 34.54317 | 37933 ft | 441 kts | 312° |
| 2026-05-07 12:14 | 27.92071 | 34.49561 | 37940 ft | 442 kts | 312° |
| 2026-05-07 12:14 | 27.96514 | 34.44824 | 37938 ft | 441 kts | 312° |
| 2026-05-07 12:15 | 28.00829 | 34.39913 | 37938 ft | 438 kts | 306° |
| 2026-05-07 12:15 | 28.04677 | 34.34582 | 37938 ft | 437 kts | 305° |
| 2026-05-07 12:16 | 28.08534 | 34.29259 | 37943 ft | 437 kts | 305° |
| 2026-05-07 12:16 | 28.12387 | 34.23928 | 37949 ft | 438 kts | 305° |
| 2026-05-07 12:17 | 28.16219 | 34.18615 | 37960 ft | 438 kts | 305° |
| 2026-05-07 12:17 | 28.20072 | 34.13264 | 37972 ft | 438 kts | 305° |
| 2026-05-07 12:18 | 28.23926 | 34.07906 | 37982 ft | 438 kts | 306° |
| 2026-05-07 12:18 | 28.27754 | 34.02577 | 37973 ft | 439 kts | 306° |
| 2026-05-07 12:19 | 28.31602 | 33.97215 | 37978 ft | 438 kts | 306° |
| 2026-05-07 12:19 | 28.35446 | 33.91849 | 37979 ft | 438 kts | 306° |
| 2026-05-07 12:20 | 28.39291 | 33.86476 | 37980 ft | 438 kts | 306° |
| 2026-05-07 12:20 | 28.43127 | 33.81109 | 37974 ft | 437 kts | 306° |
| 2026-05-07 12:21 | 28.46928 | 33.75786 | 37967 ft | 435 kts | 306° |
| 2026-05-07 12:21 | 28.50729 | 33.70456 | 37941 ft | 433 kts | 306° |
| 2026-05-07 12:22 | 28.54510 | 33.65147 | 37939 ft | 432 kts | 306° |
| 2026-05-07 12:22 | 28.58290 | 33.59842 | 37935 ft | 431 kts | 306° |
| 2026-05-07 12:23 | 28.62046 | 33.54571 | 37940 ft | 432 kts | 306° |
| 2026-05-07 12:23 | 28.65822 | 33.49257 | 37942 ft | 432 kts | 306° |
| 2026-05-07 12:24 | 28.69595 | 33.43932 | 37957 ft | 432 kts | 306° |
| 2026-05-07 12:24 | 28.73365 | 33.38605 | 37962 ft | 432 kts | 306° |
| 2026-05-07 12:25 | 28.77111 | 33.33308 | 37963 ft | 432 kts | 306° |
| 2026-05-07 12:25 | 28.80883 | 33.27967 | 37965 ft | 432 kts | 306° |
| 2026-05-07 12:26 | 28.84651 | 33.22624 | 37972 ft | 432 kts | 306° |
| 2026-05-07 12:26 | 28.88419 | 33.17273 | 37986 ft | 432 kts | 306° |
| 2026-05-07 12:27 | 28.92181 | 33.11924 | 37981 ft | 432 kts | 307° |
| 2026-05-07 12:27 | 28.95908 | 33.06620 | 37990 ft | 431 kts | 307° |
| 2026-05-07 12:28 | 28.99660 | 33.01271 | 37993 ft | 430 kts | 307° |
| 2026-05-07 12:28 | 29.01524 | 32.98612 | 37869 ft | 427 kts | 307° |
| 2026-05-07 12:28 | 29.03371 | 32.95977 | 37416 ft | 425 kts | 307° |
| 2026-05-07 12:28 | 29.05215 | 32.93342 | 36765 ft | 424 kts | 307° |
| 2026-05-07 12:29 | 29.07059 | 32.90705 | 36064 ft | 424 kts | 307° |
| 2026-05-07 12:29 | 29.08904 | 32.88065 | 35350 ft | 425 kts | 307° |
| 2026-05-07 12:29 | 29.10720 | 32.85465 | 34689 ft | 425 kts | 307° |
| 2026-05-07 12:29 | 29.12568 | 32.82818 | 33989 ft | 426 kts | 307° |
| 2026-05-07 12:30 | 29.14418 | 32.80166 | 33194 ft | 426 kts | 307° |
| 2026-05-07 12:30 | 29.16269 | 32.77510 | 32330 ft | 428 kts | 307° |
| 2026-05-07 12:30 | 29.18128 | 32.74843 | 31468 ft | 430 kts | 308° |
| 2026-05-07 12:30 | 29.20001 | 32.72152 | 30564 ft | 433 kts | 308° |
| 2026-05-07 12:31 | 29.21876 | 32.69457 | 29770 ft | 433 kts | 308° |
| 2026-05-07 12:31 | 29.23745 | 32.66770 | 29075 ft | 428 kts | 308° |
| 2026-05-07 12:31 | 29.25564 | 32.64152 | 28424 ft | 424 kts | 308° |
| 2026-05-07 12:31 | 29.27392 | 32.61522 | 27776 ft | 419 kts | 308° |
| 2026-05-07 12:32 | 29.29191 | 32.58929 | 27248 ft | 413 kts | 308° |
| 2026-05-07 12:32 | 29.30944 | 32.56383 | 27071 ft | 399 kts | 308° |
| 2026-05-07 12:32 | 29.32651 | 32.53895 | 27031 ft | 398 kts | 308° |
| 2026-05-07 12:32 | 29.34391 | 32.51357 | 27033 ft | 413 kts | 308° |
| 2026-05-07 12:33 | 29.37991 | 32.46103 | 27040 ft | 419 kts | 308° |
| 2026-05-07 12:33 | 29.39761 | 32.43522 | 27009 ft | 415 kts | 308° |
| 2026-05-07 12:33 | 29.41535 | 32.40930 | 26694 ft | 411 kts | 308° |
| 2026-05-07 12:34 | 29.43297 | 32.38357 | 26123 ft | 409 kts | 308° |
| 2026-05-07 12:34 | 29.45048 | 32.35798 | 25503 ft | 407 kts | 308° |
| 2026-05-07 12:34 | 29.46779 | 32.33265 | 24899 ft | 404 kts | 308° |
| 2026-05-07 12:34 | 29.48512 | 32.30727 | 24304 ft | 401 kts | 308° |
| 2026-05-07 12:35 | 29.50224 | 32.28220 | 23715 ft | 398 kts | 308° |
| 2026-05-07 12:35 | 29.51903 | 32.25760 | 23100 ft | 395 kts | 308° |
| 2026-05-07 12:35 | 29.53585 | 32.23293 | 22457 ft | 391 kts | 308° |
| 2026-05-07 12:35 | 29.55253 | 32.20846 | 21854 ft | 388 kts | 308° |
| 2026-05-07 12:36 | 29.56905 | 32.18421 | 21264 ft | 384 kts | 308° |
| 2026-05-07 12:36 | 29.58544 | 32.16015 | 20662 ft | 380 kts | 308° |
| 2026-05-07 12:36 | 29.60166 | 32.13630 | 20088 ft | 377 kts | 308° |
| 2026-05-07 12:36 | 29.61773 | 32.11266 | 19527 ft | 374 kts | 308° |
| 2026-05-07 12:37 | 29.63366 | 32.08924 | 18964 ft | 371 kts | 308° |
| 2026-05-07 12:37 | 29.64947 | 32.06596 | 18406 ft | 367 kts | 308° |
| 2026-05-07 12:37 | 29.66492 | 32.04321 | 17809 ft | 365 kts | 308° |
| 2026-05-07 12:37 | 29.68044 | 32.02034 | 17213 ft | 361 kts | 308° |
| 2026-05-07 12:38 | 29.69585 | 31.99761 | 16641 ft | 358 kts | 308° |
| 2026-05-07 12:38 | 29.71107 | 31.97515 | 16094 ft | 355 kts | 308° |
| 2026-05-07 12:38 | 29.72619 | 31.95283 | 15548 ft | 351 kts | 308° |
| 2026-05-07 12:38 | 29.74113 | 31.93075 | 14984 ft | 349 kts | 308° |
| 2026-05-07 12:39 | 29.75599 | 31.90879 | 14457 ft | 347 kts | 308° |
| 2026-05-07 12:39 | 29.77074 | 31.88698 | 13929 ft | 344 kts | 308° |
| 2026-05-07 12:39 | 29.78518 | 31.86560 | 13366 ft | 341 kts | 308° |
| 2026-05-07 12:39 | 29.79945 | 31.84392 | 12796 ft | 338 kts | 307° |
| 2026-05-07 12:40 | 29.81300 | 31.82181 | 12182 ft | 338 kts | 300° |
| 2026-05-07 12:40 | 29.82079 | 31.79639 | 11639 ft | 338 kts | 285° |
| 2026-05-07 12:40 | 29.82591 | 31.77044 | 11428 ft | 325 kts | 284° |
| 2026-05-07 12:40 | 29.83068 | 31.74557 | 11297 ft | 310 kts | 284° |
| 2026-05-07 12:41 | 29.83513 | 31.72201 | 11073 ft | 293 kts | 284° |
| 2026-05-07 12:41 | 29.83935 | 31.69925 | 10601 ft | 291 kts | 284° |
| 2026-05-07 12:41 | 29.84354 | 31.67645 | 10225 ft | 289 kts | 284° |
| 2026-05-07 12:41 | 29.84764 | 31.65381 | 9798 ft | 289 kts | 284° |
| 2026-05-07 12:42 | 29.85167 | 31.63152 | 9378 ft | 287 kts | 284° |
| 2026-05-07 12:42 | 29.85571 | 31.60906 | 8947 ft | 286 kts | 284° |
| 2026-05-07 12:42 | 29.85971 | 31.58663 | 8511 ft | 285 kts | 284° |
| 2026-05-07 12:42 | 29.86367 | 31.56439 | 8138 ft | 282 kts | 285° |
| 2026-05-07 12:43 | 29.86758 | 31.54223 | 7721 ft | 282 kts | 284° |
| 2026-05-07 12:43 | 29.87150 | 31.52018 | 7366 ft | 280 kts | 284° |
| 2026-05-07 12:43 | 29.87543 | 31.49821 | 6964 ft | 279 kts | 284° |
| 2026-05-07 12:43 | 29.87937 | 31.47634 | 6601 ft | 277 kts | 284° |
| 2026-05-07 12:44 | 29.88228 | 31.45451 | 6239 ft | 276 kts | 277° |
| 2026-05-07 12:44 | 29.88301 | 31.43251 | 5754 ft | 279 kts | 275° |
| 2026-05-07 12:44 | 29.88352 | 31.41023 | 5385 ft | 277 kts | 275° |
| 2026-05-07 12:44 | 29.88396 | 31.38826 | 5161 ft | 269 kts | 275° |
| 2026-05-07 12:45 | 29.88428 | 31.36717 | 5044 ft | 258 kts | 274° |
| 2026-05-07 12:45 | 29.88456 | 31.34698 | 4945 ft | 247 kts | 275° |
| 2026-05-07 12:45 | 29.88472 | 31.32753 | 4724 ft | 241 kts | 275° |
| 2026-05-07 12:45 | 29.88494 | 31.30812 | 4313 ft | 242 kts | 275° |
| 2026-05-07 12:46 | 29.88555 | 31.28887 | 3960 ft | 237 kts | 283° |
| 2026-05-07 12:46 | 29.89183 | 31.27223 | 3574 ft | 228 kts | 315° |
| 2026-05-07 12:46 | 29.90417 | 31.26150 | 3266 ft | 221 kts | 330° |
| 2026-05-07 12:46 | 29.91665 | 31.25111 | 2917 ft | 221 kts | 325° |
| 2026-05-07 12:47 | 29.92882 | 31.24044 | 2679 ft | 219 kts | 333° |
| 2026-05-07 12:47 | 29.94300 | 31.23659 | 2506 ft | 203 kts | 7° |
| 2026-05-07 12:47 | 29.95628 | 31.24006 | 2497 ft | 192 kts | 15° |
| 2026-05-07 12:47 | 29.96720 | 31.24682 | 2509 ft | 180 kts | 45° |
| 2026-05-07 12:48 | 29.97511 | 31.25759 | 2519 ft | 169 kts | 47° |
| 2026-05-07 12:48 | 29.98235 | 31.26748 | 2492 ft | 153 kts | 44° |
| 2026-05-07 12:48 | 29.98941 | 31.27543 | 2500 ft | 133 kts | 40° |
| 2026-05-07 12:48 | 29.99581 | 31.28217 | 2497 ft | 123 kts | 39° |
| 2026-05-07 12:49 | 30.00241 | 31.28916 | 2499 ft | 134 kts | 40° |
| 2026-05-07 12:49 | 30.00934 | 31.29665 | 2509 ft | 137 kts | 41° |
| 2026-05-07 12:49 | 30.01610 | 31.30411 | 2484 ft | 130 kts | 41° |
| 2026-05-07 12:49 | 30.02260 | 31.31138 | 2519 ft | 133 kts | 42° |
| 2026-05-07 12:50 | 30.02929 | 31.31897 | 2299 ft | 135 kts | 42° |
| 2026-05-07 12:50 | 30.03572 | 31.32680 | 2033 ft | 134 kts | 46° |
| 2026-05-07 12:50 | 30.04209 | 31.33475 | 1739 ft | 135 kts | 45° |
| 2026-05-07 12:50 | 30.04836 | 31.34226 | 1561 ft | 127 kts | 45° |
| 2026-05-07 12:51 | 30.05401 | 31.34907 | 1319 ft | 130 kts | 42° |
| 2026-05-07 12:51 | 30.06043 | 31.35616 | 1192 ft | 130 kts | 40° |
| 2026-05-07 12:51 | 30.06722 | 31.36299 | 1183 ft | 131 kts | 40° |
| 2026-05-07 12:51 | 30.07403 | 31.37003 | 1069 ft | 130 kts | 40° |
| 2026-05-07 12:52 | 30.08055 | 31.37706 | 969 ft | 130 kts | 40° |
| 2026-05-07 12:52 | 30.08751 | 31.38416 | 827 ft | 136 kts | 47° |
| 2026-05-07 12:52 | 30.09413 | 31.39175 | 640 ft | 131 kts | 48° |
| 2026-05-07 12:52 | 30.10020 | 31.39912 | 416 ft | 123 kts | 49° |
| 2026-05-07 12:53 | 30.10540 | 31.40582 | 376 ft | 93 kts | 47° |
| 2026-05-07 12:53 | 30.10867 | 31.41009 | 371 ft | 58 kts | 50° |
| 2026-05-07 12:53 | 30.11054 | 31.41286 | 375 ft | 39 kts | 48° |
| 2026-05-07 12:53 | 30.11243 | 31.41498 | 373 ft | 37 kts | 37° |
| 2026-05-07 12:54 | 30.11395 | 31.41591 | 374 ft | 0 kts | 20° |
| 2026-05-07 12:56 | 30.11434 | 31.41608 | 374 ft | 15 kts | 19° |
| 2026-05-07 12:56 | 30.11519 | 31.41629 | 374 ft | 8 kts | 354° |
| 2026-05-07 12:56 | 30.11547 | 31.41531 | 374 ft | 23 kts | 232° |
| 2026-05-07 12:56 | 30.11418 | 31.41356 | 374 ft | 20 kts | 228° |
| 2026-05-07 12:57 | 30.11408 | 31.41344 | 374 ft | 0 kts | 227° |
| 2026-05-07 12:57 | 30.11400 | 31.41324 | 374 ft | 15 kts | 251° |
| 2026-05-07 12:58 | 30.11421 | 31.41208 | 374 ft | 16 kts | 251° |
| 2026-05-07 12:58 | 30.11337 | 31.41093 | 374 ft | 21 kts | 228° |
| 2026-05-07 12:58 | 30.11233 | 31.40953 | 374 ft | 25 kts | 230° |
| 2026-05-07 12:58 | 30.11113 | 31.40792 | 374 ft | 27 kts | 228° |
| 2026-05-07 12:59 | 30.10994 | 31.40634 | 374 ft | 28 kts | 229° |
| 2026-05-07 12:59 | 30.10867 | 31.40470 | 374 ft | 29 kts | 226° |
| 2026-05-07 12:59 | 30.10729 | 31.40284 | 374 ft | 32 kts | 230° |
| 2026-05-07 12:59 | 30.10617 | 31.40137 | 374 ft | 24 kts | 228° |
| 2026-05-07 13:00 | 30.10503 | 31.39986 | 374 ft | 23 kts | 232° |
| 2026-05-07 13:00 | 30.10524 | 31.39865 | 374 ft | 17 kts | 334° |
| 2026-05-07 13:00 | 30.10642 | 31.39827 | 374 ft | 19 kts | 345° |
| 2026-05-07 13:00 | 30.10764 | 31.39788 | 374 ft | 17 kts | 344° |
| 2026-05-07 13:01 | 30.10836 | 31.39785 | 374 ft | 9 kts | 40° |
| 2026-05-07 13:01 | 30.10856 | 31.39848 | 374 ft | 8 kts | 77° |
| 2026-05-07 13:01 | 30.10859 | 31.39860 | 374 ft | 0 kts | 77° |